Time;durP1;ratioP1;P1;durP2;ratioP2;P2;SDS_P1;SDS_P2;PMS_P1;PMS_P2;Temp;Humidity;BMP_temperature;BMP_pressure;BME280_temperature;BME280_humidity;BME280_pressure;Samples;Min_cycle;Max_cycle;Signal;HPM_P1;HPM_P2
2024/03/27 00:01:46;;;;;;;6.53;3.38;;;13.90;99.90;;;;;;5027497;28;20029;-71
2024/03/27 00:04:12;;;;;;;10.05;3.05;;;13.90;99.90;;;;;;5027753;28;20378;-72
2024/03/27 00:06:38;;;;;;;11.57;3.90;;;14.00;99.90;;;;;;5026985;28;20026;-71
2024/03/27 00:09:03;;;;;;;9.50;3.30;;;14.00;99.90;;;;;;5028407;28;20036;-74
2024/03/27 00:11:29;;;;;;;8.95;2.70;;;14.00;99.90;;;;;;5028545;28;20083;-74
2024/03/27 00:13:55;;;;;;;13.45;3.47;;;13.90;99.90;;;;;;5027575;28;20029;-74
2024/03/27 00:16:21;;;;;;;7.22;3.10;;;13.90;99.90;;;;;;5027967;28;20017;-72
2024/03/27 00:18:47;;;;;;;8.23;3.17;;;13.80;99.90;;;;;;5028023;28;20041;-72
2024/03/27 00:21:13;;;;;;;7.80;2.97;;;13.70;99.90;;;;;;5028306;28;20533;-74
2024/03/27 00:23:39;;;;;;;6.03;3.03;;;13.80;99.90;;;;;;5027808;28;20029;-74
2024/03/27 00:26:05;;;;;;;7.47;2.83;;;13.70;99.90;;;;;;5024988;28;20028;-72
2024/03/27 00:28:31;;;;;;;12.00;2.78;;;13.70;99.90;;;;;;5028079;28;20375;-71
2024/03/27 00:30:56;;;;;;;6.97;3.47;;;13.70;99.90;;;;;;5028011;28;20056;-72
2024/03/27 00:33:23;;;;;;;6.63;3.40;;;13.70;99.90;;;;;;5027588;28;20462;-73
2024/03/27 00:35:58;;;;;;;8.82;2.90;;;13.60;99.90;;;;;;5027609;28;20025;-75
2024/03/27 00:38:25;;;;;;;9.55;3.33;;;13.60;99.90;;;;;;5027924;28;20037;-71
2024/03/27 00:40:51;;;;;;;7.63;3.00;;;13.60;99.90;;;;;;5028148;28;20018;-75
2024/03/27 00:43:18;;;;;;;9.88;3.22;;;13.60;99.90;;;;;;5026915;28;20029;-73
2024/03/27 00:45:44;;;;;;;9.45;3.10;;;13.60;99.90;;;;;;5026612;28;20103;-74
2024/03/27 00:48:11;;;;;;;10.00;3.25;;;13.50;99.90;;;;;;5027585;28;20025;-72
2024/03/27 00:50:37;;;;;;;11.00;3.30;;;13.50;99.90;;;;;;5026837;28;20466;-71
2024/03/27 00:53:03;;;;;;;9.98;3.00;;;13.50;99.90;;;;;;5027642;28;20038;-74
2024/03/27 00:55:30;;;;;;;9.88;2.78;;;13.50;99.90;;;;;;5027378;28;20037;-74
2024/03/27 00:57:56;;;;;;;8.98;3.38;;;13.40;99.90;;;;;;5025574;28;20087;-72
2024/03/27 01:00:23;;;;;;;6.70;2.95;;;13.40;99.90;;;;;;5026626;28;20038;-73
2024/03/27 01:02:49;;;;;;;11.77;2.83;;;13.30;99.90;;;;;;5027443;28;20022;-74
2024/03/27 01:05:15;;;;;;;10.05;2.63;;;13.30;99.90;;;;;;5027406;28;20099;-72
2024/03/27 01:07:42;;;;;;;6.20;2.83;;;13.30;99.90;;;;;;5026475;28;20024;-73
2024/03/27 01:10:08;;;;;;;8.57;3.50;;;13.30;99.90;;;;;;5026719;28;20030;-74
2024/03/27 01:12:34;;;;;;;10.20;4.05;;;13.40;99.90;;;;;;5025245;28;20022;-72
2024/03/27 01:15:00;;;;;;;8.25;3.38;;;13.40;99.90;;;;;;5026654;28;20534;-73
2024/03/27 01:17:26;;;;;;;8.02;3.65;;;13.40;99.90;;;;;;5024934;28;20116;-72
2024/03/27 01:19:52;;;;;;;10.77;3.65;;;13.40;99.90;;;;;;5026632;28;20041;-74
2024/03/27 01:22:18;;;;;;;9.68;3.15;;;13.40;99.90;;;;;;5027584;28;20109;-74
2024/03/27 01:24:44;;;;;;;9.13;3.65;;;13.40;99.90;;;;;;5025667;28;20025;-71
2024/03/27 01:27:10;;;;;;;11.10;4.35;;;13.30;99.90;;;;;;5024608;28;20021;-73
2024/03/27 01:29:36;;;;;;;7.60;3.13;;;13.30;99.90;;;;;;5026763;28;20032;-72
2024/03/27 01:32:01;;;;;;;7.45;3.22;;;13.40;99.90;;;;;;5026836;28;20410;-73
2024/03/27 01:34:27;;;;;;;6.43;2.67;;;13.30;99.90;;;;;;5026848;28;20398;-74
2024/03/27 01:36:53;;;;;;;5.88;3.22;;;13.30;99.90;;;;;;5026230;28;20020;-72
2024/03/27 01:39:18;;;;;;;8.77;2.83;;;13.30;99.90;;;;;;5026795;28;20466;-71
2024/03/27 01:41:44;;;;;;;9.77;3.58;;;13.20;99.90;;;;;;5026777;28;20445;-74
2024/03/27 01:44:28;;;;;;;9.57;3.10;;;13.20;99.90;;;;;;5026574;28;20091;-72
2024/03/27 01:46:53;;;;;;;7.50;3.85;;;13.20;99.90;;;;;;5025629;28;20040;-74
2024/03/27 01:49:20;;;;;;;11.50;3.78;;;13.10;99.90;;;;;;5026705;28;21111;-72
2024/03/27 01:51:47;;;;;;;10.48;3.40;;;13.10;99.90;;;;;;5026409;28;20121;-72
2024/03/27 01:54:16;;;;;;;8.18;3.85;;;13.10;99.90;;;;;;5026360;28;20047;-72
2024/03/27 01:56:42;;;;;;;9.35;3.58;;;13.10;99.90;;;;;;5025009;28;20025;-74
2024/03/27 01:59:08;;;;;;;10.93;3.97;;;13.10;99.90;;;;;;5026262;28;20051;-72
2024/03/27 02:01:35;;;;;;;11.77;4.32;;;13.20;99.90;;;;;;5025153;28;20021;-74
2024/03/27 02:04:01;;;;;;;9.23;3.28;;;13.20;99.90;;;;;;5026095;28;20119;-73
2024/03/27 02:06:27;;;;;;;7.28;3.53;;;13.20;99.90;;;;;;5025876;28;20048;-72
2024/03/27 02:08:53;;;;;;;10.27;3.47;;;13.20;99.90;;;;;;5025815;28;20474;-71
2024/03/27 02:11:21;;;;;;;7.13;3.65;;;13.20;99.90;;;;;;5026244;28;20029;-72
2024/03/27 02:13:47;;;;;;;7.82;3.22;;;13.30;99.90;;;;;;5024537;28;20032;-71
2024/03/27 02:16:13;;;;;;;8.55;4.43;;;13.30;99.90;;;;;;5025768;28;20021;-71
2024/03/27 02:18:39;;;;;;;7.22;3.97;;;13.30;99.90;;;;;;5026021;28;20509;-72
2024/03/27 02:21:07;;;;;;;8.30;2.70;;;13.20;99.90;;;;;;5026016;28;20033;-71
2024/03/27 02:23:40;;;;;;;7.80;2.72;;;13.20;99.90;;;;;;5024561;28;20025;-72
2024/03/27 02:26:15;;;;;;;4.82;1.80;;;13.20;99.90;;;;;;5023209;28;20144;-71
2024/03/27 02:28:45;;;;;;;2.83;1.60;;;13.20;99.90;;;;;;5025549;28;20783;-72
2024/03/27 02:31:10;;;;;;;1.30;1.10;;;13.10;99.90;;;;;;5025874;28;20018;-72
2024/03/27 02:33:36;;;;;;;2.25;0.80;;;13.10;99.90;;;;;;5025538;28;20040;-73
2024/03/27 02:36:03;;;;;;;1.40;0.82;;;13.00;99.90;;;;;;5025136;28;20025;-72
2024/03/27 02:38:28;;;;;;;1.67;1.00;;;13.00;99.90;;;;;;5024856;28;20029;-72
2024/03/27 02:40:54;;;;;;;2.40;2.20;;;13.10;99.90;;;;;;5025902;28;20390;-72
2024/03/27 02:43:20;;;;;;;2.40;1.83;;;13.20;99.90;;;;;;5025829;28;20581;-71
2024/03/27 02:45:46;;;;;;;3.08;1.40;;;13.10;99.90;;;;;;5024169;28;20032;-72
2024/03/27 02:48:12;;;;;;;1.00;0.90;;;13.10;99.90;;;;;;5023794;28;20022;-72
2024/03/27 02:50:38;;;;;;;0.82;0.70;;;13.00;99.90;;;;;;5025292;28;20061;-72
2024/03/27 02:53:04;;;;;;;3.03;1.00;;;13.00;99.90;;;;;;5025633;28;20025;-71
2024/03/27 02:55:30;;;;;;;2.53;0.75;;;13.00;99.90;;;;;;5025662;28;20025;-72
2024/03/27 02:57:55;;;;;;;7.07;0.90;;;13.00;99.90;;;;;;5024067;28;20099;-72
2024/03/27 03:00:21;;;;;;;0.82;0.80;;;13.00;99.90;;;;;;5024986;28;20037;-73
2024/03/27 03:02:47;;;;;;;2.17;0.70;;;13.00;99.90;;;;;;5023283;28;20029;-72
2024/03/27 03:05:13;;;;;;;0.80;0.70;;;13.00;99.90;;;;;;5023470;28;20029;-71
2024/03/27 03:07:38;;;;;;;1.00;0.70;;;13.00;99.90;;;;;;5024973;28;20029;-72
2024/03/27 03:10:05;;;;;;;3.50;0.70;;;12.90;99.90;;;;;;5024500;28;20032;-71
2024/03/27 03:12:30;;;;;;;1.08;0.73;;;12.90;99.90;;;;;;5026037;28;20014;-71
2024/03/27 03:14:56;;;;;;;1.23;0.75;;;12.80;99.90;;;;;;5025446;28;20037;-72
2024/03/27 03:17:22;;;;;;;1.10;1.00;;;12.70;99.90;;;;;;5024827;28;20432;-72
2024/03/27 03:19:47;;;;;;;0.80;0.80;;;12.70;99.90;;;;;;5024268;28;20038;-72
2024/03/27 03:22:16;;;;;;;0.70;0.70;;;12.70;99.90;;;;;;5025293;28;20022;-71
2024/03/27 03:24:42;;;;;;;1.17;0.80;;;12.70;99.90;;;;;;5024949;28;20159;-71
2024/03/27 03:27:07;;;;;;;1.55;1.30;;;12.60;99.90;;;;;;5024801;28;20024;-71
2024/03/27 03:29:33;;;;;;;1.30;1.20;;;12.60;99.90;;;;;;5025873;28;20489;-71
2024/03/27 03:31:59;;;;;;;1.20;1.10;;;12.70;99.90;;;;;;5025121;28;20585;-72
2024/03/27 03:34:25;;;;;;;3.92;1.55;;;12.50;99.90;;;;;;5025511;28;20030;-71
2024/03/27 03:36:51;;;;;;;1.25;1.13;;;12.50;99.90;;;;;;5023954;28;20041;-73
2024/03/27 03:39:17;;;;;;;2.95;1.10;;;12.50;99.90;;;;;;5023987;28;20108;-71
2024/03/27 03:41:42;;;;;;;2.47;1.05;;;12.50;99.90;;;;;;5025076;28;20109;-72
2024/03/27 03:44:09;;;;;;;1.80;1.10;;;12.50;99.90;;;;;;5024977;28;20100;-72
2024/03/27 03:46:34;;;;;;;1.63;1.40;;;12.50;99.90;;;;;;5023538;28;20099;-71
2024/03/27 03:49:00;;;;;;;2.67;1.40;;;12.50;99.90;;;;;;5025240;28;20037;-71
2024/03/27 03:51:26;;;;;;;1.30;1.20;;;12.50;99.90;;;;;;5024864;28;20026;-72
2024/03/27 03:53:53;;;;;;;1.33;1.23;;;12.60;99.90;;;;;;5024960;28;20025;-71
2024/03/27 03:56:19;;;;;;;1.67;1.58;;;12.60;99.90;;;;;;5022937;28;20067;-71
2024/03/27 03:58:44;;;;;;;1.70;1.58;;;12.70;99.90;;;;;;5025222;28;20034;-73
2024/03/27 04:01:11;;;;;;;1.08;1.08;;;12.70;99.90;;;;;;5025023;28;20041;-73
2024/03/27 04:03:36;;;;;;;3.97;1.90;;;12.60;99.90;;;;;;5023871;28;20041;-71
2024/03/27 04:06:02;;;;;;;1.88;1.77;;;12.50;99.90;;;;;;5024092;28;20057;-71
2024/03/27 04:08:28;;;;;;;2.40;1.83;;;12.60;99.90;;;;;;5024934;28;20018;-70
2024/03/27 04:10:54;;;;;;;1.77;1.67;;;12.60;99.90;;;;;;5024921;28;20097;-71
2024/03/27 04:13:19;;;;;;;1.88;1.77;;;12.50;99.90;;;;;;5025200;28;20034;-71
2024/03/27 04:15:46;;;;;;;2.67;2.40;;;12.50;99.90;;;;;;5024190;28;20029;-71
2024/03/27 04:18:12;;;;;;;2.60;2.40;;;12.50;99.90;;;;;;5025082;28;20033;-71
2024/03/27 04:20:41;;;;;;;2.70;2.40;;;12.40;99.90;;;;;;5024590;28;20493;-71
2024/03/27 04:23:07;;;;;;;4.05;2.65;;;12.30;99.90;;;;;;5024796;28;20064;-71
2024/03/27 04:25:33;;;;;;;2.90;2.70;;;12.30;99.90;;;;;;5024261;28;20083;-71
2024/03/27 04:27:59;;;;;;;3.65;2.53;;;12.30;99.90;;;;;;5023863;28;20030;-72
2024/03/27 04:30:26;;;;;;;3.78;3.05;;;12.40;99.90;;;;;;5025071;28;20536;-71
2024/03/27 04:32:53;;;;;;;3.00;2.80;;;12.30;99.90;;;;;;5024946;28;20458;-73
2024/03/27 04:35:19;;;;;;;2.80;2.60;;;12.30;99.90;;;;;;5023943;28;20028;-74
2024/03/27 04:37:45;;;;;;;2.97;2.67;;;12.30;99.90;;;;;;5024254;28;20118;-71
2024/03/27 04:40:11;;;;;;;3.40;3.10;;;12.40;99.90;;;;;;5024379;28;20042;-74
2024/03/27 04:42:41;;;;;;;3.42;3.13;;;12.30;99.90;;;;;;5024713;28;20489;-73
2024/03/27 04:45:08;;;;;;;2.58;2.38;;;12.30;99.90;;;;;;5023706;28;20555;-73
2024/03/27 04:47:37;;;;;;;5.57;2.90;;;12.40;99.90;;;;;;5025907;28;20545;-73
2024/03/27 04:50:04;;;;;;;3.05;2.78;;;12.30;99.90;;;;;;5028207;28;20540;-73
2024/03/27 04:52:31;;;;;;;3.25;3.05;;;12.40;99.90;;;;;;5028244;28;20022;-72
2024/03/27 04:54:56;;;;;;;3.60;3.30;;;12.30;99.90;;;;;;5026273;28;20060;-72
2024/03/27 04:57:22;;;;;;;3.13;2.85;;;12.30;99.90;;;;;;5027412;28;20052;-73
2024/03/27 04:59:48;;;;;;;3.08;2.78;;;12.30;99.90;;;;;;5027699;28;20433;-73
2024/03/27 05:02:14;;;;;;;3.65;3.35;;;12.30;99.90;;;;;;5028076;28;20092;-72
2024/03/27 05:04:39;;;;;;;4.20;3.10;;;12.30;99.90;;;;;;5027614;28;20076;-72
2024/03/27 05:07:05;;;;;;;3.28;3.08;;;12.40;99.90;;;;;;5021663;28;20097;-71
2024/03/27 05:09:31;;;;;;;3.63;3.33;;;12.30;99.90;;;;;;5025100;28;20095;-74
2024/03/27 05:11:58;;;;;;;3.70;3.40;;;12.30;99.90;;;;;;5026415;28;20060;-73
2024/03/27 05:14:24;;;;;;;3.80;3.45;;;12.30;99.90;;;;;;5027082;28;20025;-71
2024/03/27 05:16:49;;;;;;;4.97;3.38;;;12.40;99.90;;;;;;5025399;28;20079;-72
2024/03/27 05:19:15;;;;;;;2.88;2.63;;;12.30;99.90;;;;;;5025574;28;20049;-73
2024/03/27 05:21:43;;;;;;;6.65;3.28;;;12.30;99.90;;;;;;5027867;28;20026;-72
2024/03/27 05:24:09;;;;;;;4.82;3.47;;;12.30;99.90;;;;;;5027994;28;20029;-73
2024/03/27 05:26:35;;;;;;;4.38;3.20;;;12.40;99.90;;;;;;5025204;28;20068;-71
2024/03/27 05:29:01;;;;;;;4.65;3.60;;;12.30;99.90;;;;;;5027471;28;20060;-73
2024/03/27 05:31:27;;;;;;;4.95;3.42;;;12.40;99.90;;;;;;5025698;28;20128;-74
2024/03/27 05:33:53;;;;;;;3.35;3.05;;;12.30;99.90;;;;;;5026956;28;20033;-72
2024/03/27 05:36:19;;;;;;;4.38;2.90;;;12.30;99.90;;;;;;5027306;28;20029;-72
2024/03/27 05:38:45;;;;;;;2.90;2.70;;;12.30;99.90;;;;;;5027191;28;20037;-73
2024/03/27 05:41:10;;;;;;;3.75;2.75;;;12.30;99.90;;;;;;5027218;28;20095;-72
2024/03/27 05:43:37;;;;;;;2.42;2.22;;;12.30;99.90;;;;;;5024704;28;20021;-72
2024/03/27 05:46:02;;;;;;;3.10;2.80;;;12.20;99.90;;;;;;5026043;28;20037;-72
2024/03/27 05:48:29;;;;;;;3.25;2.45;;;12.20;99.90;;;;;;5026749;28;22806;-71
2024/03/27 05:50:55;;;;;;;3.08;2.63;;;12.20;99.90;;;;;;5026275;28;20079;-73
2024/03/27 05:53:21;;;;;;;3.40;2.28;;;12.20;99.90;;;;;;5026771;28;20386;-73
2024/03/27 05:56:08;;;;;;;2.45;2.25;;;12.20;99.90;;;;;;5025504;28;20030;-73
2024/03/27 05:58:33;;;;;;;2.45;2.25;;;12.20;99.90;;;;;;5026377;28;20052;-73
2024/03/27 06:00:59;;;;;;;2.45;1.92;;;12.30;99.90;;;;;;5026569;28;20025;-72
2024/03/27 06:03:25;;;;;;;2.30;2.10;;;12.30;99.90;;;;;;5026900;28;20014;-72
2024/03/27 06:05:50;;;;;;;3.03;2.30;;;12.20;99.90;;;;;;5026094;28;20429;-72
2024/03/27 06:08:17;;;;;;;3.25;2.20;;;12.20;99.90;;;;;;5025811;28;20100;-72
2024/03/27 06:10:47;;;;;;;3.10;1.83;;;12.30;99.90;;;;;;5026652;28;20103;-72
2024/03/27 06:13:13;;;;;;;2.58;2.15;;;12.30;99.90;;;;;;5025309;28;20021;-72
2024/03/27 06:15:39;;;;;;;3.10;2.80;;;12.20;99.90;;;;;;5025994;28;20025;-71
2024/03/27 06:18:05;;;;;;;6.40;4.03;;;12.20;99.90;;;;;;5026626;28;20516;-72
2024/03/27 06:20:33;;;;;;;5.93;4.55;;;12.10;99.90;;;;;;5026286;28;20029;-72
2024/03/27 06:22:59;;;;;;;5.43;4.70;;;12.00;99.90;;;;;;5026420;28;20029;-74
2024/03/27 06:25:25;;;;;;;6.43;5.10;;;11.90;99.90;;;;;;5024471;28;20063;-72
2024/03/27 06:27:51;;;;;;;8.00;5.43;;;12.00;99.90;;;;;;5024397;28;20075;-71
2024/03/27 06:30:17;;;;;;;7.30;5.57;;;11.90;99.90;;;;;;5025003;28;20055;-72
2024/03/27 06:32:44;;;;;;;8.65;6.22;;;11.90;99.90;;;;;;5026234;28;20099;-72
2024/03/27 06:35:09;;;;;;;7.70;5.35;;;12.00;99.90;;;;;;5024302;28;20378;-72
2024/03/27 06:37:35;;;;;;;7.25;5.82;;;11.90;99.90;;;;;;5024923;28;20021;-71
2024/03/27 06:40:01;;;;;;;9.32;6.50;;;11.80;99.90;;;;;;5025525;28;20048;-72
2024/03/27 06:42:27;;;;;;;12.05;7.40;;;11.80;99.90;;;;;;5025702;28;20659;-71
2024/03/27 06:44:54;;;;;;;10.80;8.05;;;11.80;99.90;;;;;;5023894;28;20025;-72
2024/03/27 06:47:26;;;;;;;11.43;7.10;;;11.80;99.90;;;;;;5024172;28;20467;-71
2024/03/27 06:49:52;;;;;;;10.40;6.23;;;11.80;99.90;;;;;;5025967;28;20433;-71
2024/03/27 06:52:19;;;;;;;13.82;6.57;;;11.60;99.90;;;;;;5024467;28;20014;-71
2024/03/27 06:54:48;;;;;;;10.52;6.30;;;11.60;99.90;;;;;;5026025;28;20029;-71
2024/03/27 06:57:14;;;;;;;8.27;5.53;;;11.50;99.90;;;;;;5024844;28;20029;-71
2024/03/27 06:59:40;;;;;;;8.70;6.03;;;11.60;99.90;;;;;;5025289;28;20112;-72
2024/03/27 07:02:06;;;;;;;9.25;5.13;;;11.50;99.90;;;;;;5025557;28;20028;-73
2024/03/27 07:04:31;;;;;;;9.23;5.03;;;11.60;99.90;;;;;;5025917;28;20471;-73
2024/03/27 07:06:57;;;;;;;7.85;5.47;;;11.50;99.90;;;;;;5025548;28;20093;-72
2024/03/27 07:09:25;;;;;;;7.25;5.35;;;11.50;99.90;;;;;;5024838;28;20482;-72
2024/03/27 07:11:51;;;;;;;7.75;5.28;;;11.40;99.90;;;;;;5025552;28;20387;-70
2024/03/27 07:14:18;;;;;;;9.70;5.72;;;11.50;99.90;;;;;;5024028;28;20033;-71
2024/03/27 07:16:43;;;;;;;7.07;5.20;;;11.50;99.90;;;;;;5025139;28;20032;-71
2024/03/27 07:19:13;;;;;;;5.28;4.22;;;11.60;99.90;;;;;;5025017;28;20382;-73
2024/03/27 07:21:38;;;;;;;6.75;4.63;;;11.70;99.90;;;;;;5025069;28;20051;-74
2024/03/27 07:24:04;;;;;;;9.32;5.30;;;11.60;99.90;;;;;;5025433;28;20336;-72
2024/03/27 07:26:36;;;;;;;8.13;4.50;;;11.60;99.90;;;;;;5024805;28;20027;-73
2024/03/27 07:29:02;;;;;;;7.70;5.18;;;11.80;99.90;;;;;;5025239;28;20528;-71
2024/03/27 07:31:28;;;;;;;9.07;5.13;;;11.80;99.90;;;;;;5024313;28;20053;-71
2024/03/27 07:33:53;;;;;;;7.88;5.00;;;11.70;99.90;;;;;;5024386;28;20039;-73
2024/03/27 07:36:19;;;;;;;7.95;4.43;;;11.80;99.90;;;;;;5024537;28;20029;-71
2024/03/27 07:38:45;;;;;;;7.38;4.10;;;11.80;99.90;;;;;;5024970;28;20037;-73
2024/03/27 07:41:11;;;;;;;7.00;4.47;;;11.80;99.90;;;;;;5025225;28;20057;-72
2024/03/27 07:43:36;;;;;;;7.80;3.53;;;11.80;99.90;;;;;;5022954;28;20562;-74
2024/03/27 07:46:05;;;;;;;9.63;3.88;;;11.80;99.90;;;;;;5023588;28;20036;-72
2024/03/27 07:48:31;;;;;;;5.95;4.00;;;11.70;99.90;;;;;;5024644;28;20029;-73
2024/03/27 07:50:57;;;;;;;7.18;3.90;;;11.90;99.90;;;;;;5023229;28;20022;-71
2024/03/27 07:53:23;;;;;;;5.72;3.30;;;11.90;99.90;;;;;;5022878;28;20028;-72
2024/03/27 07:55:59;;;;;;;5.55;3.17;;;11.90;99.90;;;;;;5024039;28;20029;-71
2024/03/27 07:58:25;;;;;;;9.52;4.55;;;11.80;99.90;;;;;;5023676;28;20033;-71
2024/03/27 08:00:51;;;;;;;7.95;3.85;;;11.70;99.90;;;;;;5022482;28;20037;-73
2024/03/27 08:03:17;;;;;;;13.77;3.72;;;11.80;99.90;;;;;;5024857;28;20045;-73
2024/03/27 08:05:45;;;;;;;4.85;3.15;;;11.90;99.90;;;;;;5024229;28;20048;-73
2024/03/27 08:08:12;;;;;;;5.53;3.47;;;11.90;99.90;;;;;;5024973;28;20032;-71
2024/03/27 08:10:39;;;;;;;9.38;3.72;;;12.00;99.90;;;;;;5023454;28;20033;-72
2024/03/27 08:13:05;;;;;;;8.23;4.40;;;11.90;99.90;;;;;;5024997;28;20030;-71
2024/03/27 08:15:31;;;;;;;10.85;4.15;;;11.80;99.90;;;;;;5024171;28;20029;-73
2024/03/27 08:17:57;;;;;;;7.75;4.53;;;11.70;99.90;;;;;;5022541;28;20091;-71
2024/03/27 08:20:23;;;;;;;7.53;4.57;;;11.80;99.90;;;;;;5024061;28;20116;-71
2024/03/27 08:22:49;;;;;;;7.97;4.85;;;11.80;99.90;;;;;;5024538;28;20045;-73
2024/03/27 08:25:15;;;;;;;12.02;5.75;;;11.80;99.90;;;;;;5025305;28;20025;-72
2024/03/27 08:27:40;;;;;;;8.98;5.50;;;11.80;99.90;;;;;;5028346;28;20045;-70
2024/03/27 08:30:07;;;;;;;6.22;5.13;;;11.80;99.90;;;;;;5028547;28;20442;-70
2024/03/27 08:32:33;;;;;;;9.35;5.35;;;11.80;99.90;;;;;;5026498;28;20033;-71
2024/03/27 08:34:59;;;;;;;9.85;5.28;;;11.80;99.90;;;;;;5026007;28;20572;-71
2024/03/27 08:37:24;;;;;;;7.88;5.35;;;11.80;99.90;;;;;;5024930;28;20040;-69
2024/03/27 08:39:51;;;;;;;8.43;5.70;;;11.70;99.90;;;;;;5025906;28;20497;-71
2024/03/27 08:42:21;;;;;;;10.02;5.95;;;11.70;99.90;;;;;;5025334;28;20025;-75
2024/03/27 08:44:48;;;;;;;10.40;6.22;;;11.70;99.90;;;;;;5027639;28;20080;-69
2024/03/27 08:47:13;;;;;;;9.07;6.18;;;11.60;99.90;;;;;;5027315;28;20056;-69
2024/03/27 08:49:39;;;;;;;9.13;7.68;;;11.50;99.90;;;;;;5028001;28;20057;-70
2024/03/27 08:52:05;;;;;;;13.85;7.63;;;11.60;99.90;;;;;;5027364;28;20056;-70
2024/03/27 08:54:31;;;;;;;15.90;8.10;;;11.50;99.90;;;;;;5028127;28;20110;-69
2024/03/27 08:56:56;;;;;;;14.50;8.00;;;11.40;99.90;;;;;;5028198;28;20101;-71
2024/03/27 08:59:22;;;;;;;12.02;8.05;;;11.60;99.90;;;;;;5027290;28;20033;-70
2024/03/27 09:01:48;;;;;;;12.48;8.63;;;11.40;99.90;;;;;;5028167;28;20455;-70
2024/03/27 09:04:14;;;;;;;15.88;9.48;;;11.50;99.90;;;;;;5026775;28;20022;-70
2024/03/27 09:06:39;;;;;;;8.88;7.45;;;11.60;99.90;;;;;;5027622;28;20076;-69
2024/03/27 09:09:05;;;;;;;11.98;8.43;;;11.70;99.90;;;;;;5026083;28;20431;-70
2024/03/27 09:11:31;;;;;;;18.30;8.70;;;11.70;99.90;;;;;;5027702;28;20030;-69
2024/03/27 09:13:56;;;;;;;10.93;9.05;;;11.60;99.90;;;;;;5027946;28;20500;-69
2024/03/27 09:16:22;;;;;;;10.75;8.45;;;11.60;99.90;;;;;;5026055;28;20048;-69
2024/03/27 09:18:48;;;;;;;12.73;9.20;;;11.60;99.90;;;;;;5027135;28;20077;-69
2024/03/27 09:21:14;;;;;;;13.10;9.65;;;11.70;99.90;;;;;;5027311;28;20030;-70
2024/03/27 09:23:39;;;;;;;12.77;9.23;;;11.80;99.90;;;;;;5024877;28;20053;-69
2024/03/27 09:26:05;;;;;;;12.93;9.15;;;11.90;99.90;;;;;;5027658;28;21166;-69
2024/03/27 09:28:31;;;;;;;14.38;9.50;;;11.90;99.90;;;;;;5025654;28;20033;-69
2024/03/27 09:31:35;;;;;;;;;;;;;;;;;;;;;
2024/03/27 09:34:01;;;;;;;14.32;9.93;;;11.80;99.90;;;;;;5026019;28;20033;-68
2024/03/27 09:36:26;;;;;;;14.50;10.15;;;11.70;99.90;;;;;;5024430;28;20048;-69
2024/03/27 09:38:52;;;;;;;12.05;8.98;;;11.70;99.90;;;;;;5026597;28;20394;-68
2024/03/27 09:41:18;;;;;;;14.05;10.23;;;11.60;99.90;;;;;;5023787;28;20033;-69
2024/03/27 09:43:46;;;;;;;13.15;10.07;;;11.70;99.90;;;;;;5025032;28;20036;-70
2024/03/27 09:46:12;;;;;;;14.77;10.10;;;11.60;99.90;;;;;;5024318;28;20043;-69
2024/03/27 09:48:42;;;;;;;14.35;10.90;;;11.70;99.90;;;;;;5027255;28;21118;-71
2024/03/27 09:51:09;;;;;;;12.00;9.50;;;11.80;99.90;;;;;;5025886;28;20414;-69
2024/03/27 09:53:43;;;;;;;13.27;10.15;;;11.80;99.90;;;;;;5025345;28;20031;-69
2024/03/27 09:56:09;;;;;;;15.20;10.32;;;11.80;99.90;;;;;;5022619;28;20009;-70
2024/03/27 09:58:35;;;;;;;10.15;9.13;;;11.90;99.90;;;;;;5027439;28;20033;-70
2024/03/27 10:01:04;;;;;;;14.45;11.23;;;11.80;99.90;;;;;;5025923;28;20497;-70
2024/03/27 10:03:30;;;;;;;12.25;10.48;;;11.80;99.90;;;;;;5025526;28;20037;-70
2024/03/27 10:05:58;;;;;;;14.65;12.07;;;11.80;99.90;;;;;;5025212;28;20029;-72
2024/03/27 10:08:25;;;;;;;14.38;10.80;;;11.80;99.90;;;;;;5025863;28;20026;-70
2024/03/27 10:10:53;;;;;;;13.40;11.60;;;11.80;99.90;;;;;;5026644;28;20076;-72
2024/03/27 10:13:20;;;;;;;13.93;11.48;;;11.80;99.90;;;;;;5026332;28;20025;-70
2024/03/27 10:15:51;;;;;;;14.98;12.18;;;11.70;99.90;;;;;;5025433;28;20022;-70
2024/03/27 10:18:17;;;;;;;11.10;9.85;;;11.60;99.90;;;;;;5026703;28;20119;-70
2024/03/27 10:20:43;;;;;;;16.20;10.88;;;11.60;99.90;;;;;;5025117;28;20029;-72
2024/03/27 10:23:12;;;;;;;15.45;12.00;;;11.70;99.90;;;;;;5026387;28;20466;-70
2024/03/27 10:25:39;;;;;;;12.60;10.77;;;11.60;99.90;;;;;;5025042;28;20060;-70
2024/03/27 10:28:08;;;;;;;13.73;10.07;;;11.60;99.90;;;;;;5026628;28;20060;-69
2024/03/27 10:30:34;;;;;;;15.70;10.98;;;11.70;99.90;;;;;;5024312;28;20021;-72
2024/03/27 10:33:00;;;;;;;12.80;11.43;;;11.80;99.90;;;;;;5023718;28;20038;-70
2024/03/27 10:35:30;;;;;;;12.80;10.57;;;11.90;99.90;;;;;;5024620;28;20075;-71
2024/03/27 10:37:58;;;;;;;14.43;10.07;;;11.70;99.90;;;;;;5026077;28;20029;-70
2024/03/27 10:40:23;;;;;;;16.35;11.25;;;11.70;99.90;;;;;;5025905;28;20079;-72
2024/03/27 10:43:17;;;;;;;12.32;10.57;;;11.70;99.90;;;;;;5026341;28;20025;-72
2024/03/27 10:45:45;;;;;;;15.50;11.75;;;11.70;99.90;;;;;;5025897;28;21463;-72
2024/03/27 10:48:11;;;;;;;14.20;11.75;;;12.00;99.90;;;;;;5026099;28;20095;-72
2024/03/27 10:50:38;;;;;;;18.63;11.93;;;12.00;99.90;;;;;;5025229;28;20108;-72
2024/03/27 10:53:05;;;;;;;16.15;10.85;;;12.00;99.90;;;;;;5024429;28;20040;-73
2024/03/27 10:55:36;;;;;;;12.48;11.05;;;12.10;99.90;;;;;;5025349;28;20018;-72
2024/03/27 10:58:03;;;;;;;13.50;10.20;;;12.20;99.90;;;;;;5024361;28;20470;-72
2024/03/27 11:00:32;;;;;;;10.73;8.80;;;12.10;99.90;;;;;;5023769;28;20037;-73
2024/03/27 11:02:58;;;;;;;10.52;8.05;;;12.20;99.90;;;;;;5023970;28;20021;-73
2024/03/27 11:05:27;;;;;;;8.70;7.30;;;12.00;99.90;;;;;;5024930;28;20033;-74
2024/03/27 11:08:00;;;;;;;8.95;6.65;;;12.00;99.90;;;;;;5024037;28;20021;-73
2024/03/27 11:10:26;;;;;;;;;;;11.80;99.90;;;;;;5025037;28;20048;-73
2024/03/27 11:12:52;;;;;;;7.57;6.57;;;11.90;99.90;;;;;;5025476;28;19917;-73
2024/03/27 11:15:21;;;;;;;9.40;7.18;;;12.00;99.90;;;;;;5024557;28;20064;-74
2024/03/27 11:17:53;;;;;;;7.75;6.15;;;12.10;99.90;;;;;;5024054;28;20018;-73
2024/03/27 11:20:25;;;;;;;9.40;6.80;;;12.30;99.90;;;;;;5024331;28;20041;-73
2024/03/27 11:22:54;;;;;;;8.93;6.53;;;12.20;99.90;;;;;;5025180;28;20100;-74
2024/03/27 11:25:24;;;;;;;7.95;5.95;;;12.20;99.90;;;;;;5025276;28;20120;-73
2024/03/27 11:27:50;;;;;;;8.45;6.78;;;12.10;99.90;;;;;;5024659;28;20022;-73
2024/03/27 11:30:20;;;;;;;6.32;5.45;;;12.20;99.90;;;;;;5024999;28;20037;-73
2024/03/27 11:32:47;;;;;;;6.90;6.10;;;12.30;99.90;;;;;;5022177;28;20033;-73
2024/03/27 11:35:18;;;;;;;9.00;5.32;;;12.20;99.90;;;;;;5024395;28;20025;-73
2024/03/27 11:37:44;;;;;;;5.38;4.78;;;12.30;99.90;;;;;;5025317;28;20021;-73
2024/03/27 11:40:10;;;;;;;8.35;4.95;;;12.40;99.90;;;;;;5025266;28;20391;-73
2024/03/27 11:42:36;;;;;;;6.90;4.78;;;12.50;99.90;;;;;;5024856;28;20021;-73
2024/03/27 11:45:09;;;;;;;4.80;4.40;;;12.60;99.90;;;;;;5022899;28;20861;-74
2024/03/27 11:47:34;;;;;;;6.65;4.97;;;12.50;99.90;;;;;;5025295;28;20104;-74
2024/03/27 11:50:00;;;;;;;5.80;4.13;;;12.50;99.90;;;;;;5022883;28;20112;-74
2024/03/27 11:52:26;;;;;;;5.75;4.30;;;12.50;99.90;;;;;;5023153;28;20022;-73
2024/03/27 11:54:55;;;;;;;4.97;3.70;;;12.70;99.90;;;;;;5024330;28;20147;-74
2024/03/27 11:57:21;;;;;;;5.97;4.22;;;12.70;99.90;;;;;;5027977;28;20040;-74
2024/03/27 11:59:47;;;;;;;3.83;3.30;;;12.90;99.90;;;;;;5028160;28;20060;-75
2024/03/27 12:02:14;;;;;;;5.82;3.78;;;13.00;99.90;;;;;;5028774;28;20482;-74
2024/03/27 12:04:40;;;;;;;4.30;3.28;;;13.00;99.90;;;;;;5027976;28;20018;-76
2024/03/27 12:07:06;;;;;;;3.38;3.05;;;12.90;99.90;;;;;;5027560;28;20094;-74
2024/03/27 12:09:36;;;;;;;3.35;3.03;;;12.70;99.90;;;;;;5029153;28;20029;-75
2024/03/27 12:12:02;;;;;;;5.07;3.25;;;12.80;99.90;;;;;;5028967;28;20475;-75
2024/03/27 12:14:28;;;;;;;4.18;3.40;;;12.90;99.90;;;;;;5026733;28;20028;-75
2024/03/27 12:16:54;;;;;;;5.20;3.38;;;13.10;99.90;;;;;;5028687;28;20032;-76
2024/03/27 12:19:19;;;;;;;5.63;3.20;;;13.10;99.90;;;;;;5027773;28;20034;-75
2024/03/27 12:21:45;;;;;;;3.42;3.13;;;13.10;99.90;;;;;;5028446;28;20026;-76
2024/03/27 12:24:11;;;;;;;4.78;4.28;;;12.90;99.90;;;;;;5028933;28;20036;-80
2024/03/27 12:26:38;;;;;;;4.07;3.67;;;12.60;99.90;;;;;;5028301;28;20029;-79
2024/03/27 12:29:06;;;;;;;4.82;3.17;;;12.70;99.90;;;;;;5028742;28;21313;-80
2024/03/27 12:31:33;;;;;;;7.18;3.35;;;12.80;99.90;;;;;;5027508;28;20048;-78
2024/03/27 12:33:58;;;;;;;6.45;4.03;;;12.90;99.90;;;;;;5027245;28;20032;-80
2024/03/27 12:36:24;;;;;;;5.07;3.80;;;13.00;99.90;;;;;;5028025;28;20159;-78
2024/03/27 12:38:50;;;;;;;5.07;4.55;;;13.10;99.90;;;;;;5029182;28;20041;-78
2024/03/27 12:41:16;;;;;;;4.50;4.10;;;13.30;99.90;;;;;;5028716;28;20455;-82
2024/03/27 12:43:42;;;;;;;3.95;3.55;;;13.40;99.90;;;;;;5028436;28;20041;-81